Time;durP1;ratioP1;P1;durP2;ratioP2;P2;SDS_P1;SDS_P2;PMS_P1;PMS_P2;Temp;Humidity;BMP_temperature;BMP_pressure;BME280_temperature;BME280_humidity;BME280_pressure;Samples;Min_cycle;Max_cycle;Signal;HPM_P1;HPM_P2
2021/12/24 00:01:18;;;;;;;1.20;1.13;;;;;;;6.64;78.48;95698.28;5037891;28;20220;-70
2021/12/24 00:03:45;;;;;;;2.77;1.43;;;;;;;6.37;78.80;95704.69;5037646;28;20320;-70
2021/12/24 00:06:13;;;;;;;9.67;3.57;;;;;;;6.50;78.56;95699.75;5037434;28;20205;-71
2021/12/24 00:08:40;;;;;;;4.77;3.00;;;;;;;6.52;78.15;95697.81;5038647;28;20603;-70
2021/12/24 00:11:08;;;;;;;3.63;2.80;;;;;;;6.39;78.18;95694.88;5037929;28;20673;-71
2021/12/24 00:13:40;;;;;;;3.27;1.47;;;;;;;6.77;77.96;95699.41;5037302;28;20225;-71
2021/12/24 00:16:11;;;;;;;5.13;2.37;;;;;;;6.63;77.83;95702.69;5038563;28;20245;-71
2021/12/24 00:18:45;;;;;;;2.03;1.43;;;;;;;6.47;78.74;95701.91;5037767;28;20197;-70
2021/12/24 00:35:16;;;;;;;1.27;0.93;;;;;;;6.47;77.88;95679.16;5037858;28;20869;-70
2021/12/24 00:37:46;;;;;;;2.00;1.80;;;;;;;6.45;78.02;95662.81;5037286;28;20202;-71
2021/12/24 00:40:18;;;;;;;2.87;1.63;;;;;;;6.30;78.19;95659.25;5037923;28;20201;-70
2021/12/24 00:42:47;;;;;;;5.97;2.37;;;;;;;6.38;78.00;95651.38;5036614;28;20217;-70
2021/12/24 00:45:15;;;;;;;3.27;1.80;;;;;;;6.45;77.88;95644.47;5037663;28;20252;-71
2021/12/24 00:47:42;;;;;;;3.83;1.73;;;;;;;6.07;78.18;95649.59;5037315;28;20231;-71
2021/12/24 00:50:15;;;;;;;2.00;1.57;;;;;;;6.47;77.69;95634.69;5037497;28;20205;-71
2021/12/24 00:52:52;;;;;;;5.00;2.37;;;;;;;6.32;77.22;95632.91;5036747;28;20224;-70
2021/12/24 00:55:21;;;;;;;1.50;1.40;;;;;;;6.29;77.67;95638.50;5038168;28;20205;-71
2021/12/24 00:57:50;;;;;;;2.70;2.23;;;;;;;6.41;77.74;95640.56;5036806;28;20288;-71
2021/12/24 01:00:20;;;;;;;1.70;1.47;;;;;;;6.50;77.07;95633.53;5036998;28;20688;-71
2021/12/24 01:02:48;;;;;;;3.20;2.10;;;;;;;6.37;77.37;95641.88;5037457;28;20243;-71
2021/12/24 01:05:17;;;;;;;9.03;2.63;;;;;;;6.30;77.95;95633.09;5037469;28;20208;-71
2021/12/24 01:07:45;;;;;;;7.00;2.33;;;;;;;6.09;77.69;95639.78;5037008;28;20221;-70
2021/12/24 01:10:14;;;;;;;3.40;1.63;;;;;;;6.36;77.10;95637.63;5037777;28;20278;-70
2021/12/24 01:12:40;;;;;;;3.37;1.87;;;;;;;6.13;77.28;95631.44;5036632;28;20228;-71
2021/12/24 01:15:08;;;;;;;3.97;2.50;;;;;;;6.44;77.30;95637.63;5036516;28;20209;-71
2021/12/24 01:17:40;;;;;;;4.63;2.30;;;;;;;6.24;77.59;95636.34;5033969;28;20201;-71
2021/12/24 01:20:16;;;;;;;2.83;1.50;;;;;;;6.38;77.24;95625.22;5037353;28;20201;-70
2021/12/24 01:25:33;;;;;;;5.33;1.53;;;;;;;6.33;77.02;95624.91;5037041;28;20683;-71
2021/12/24 01:28:31;;;;;;;4.30;2.03;;;;;;;6.29;77.30;95620.97;5037609;28;20320;-71
2021/12/24 01:39:18;;;;;;;3.27;2.13;;;;;;;6.58;77.39;95626.50;5041919;28;20207;-71
2021/12/24 01:44:29;;;;;;;1.90;1.70;;;;;;;6.29;77.99;95634.06;5041162;28;20228;-71
2021/12/24 01:46:57;;;;;;;3.63;1.43;;;;;;;6.33;78.50;95624.91;5041559;28;20220;-71
2021/12/24 01:49:24;;;;;;;3.07;2.00;;;;;;;6.47;77.75;95624.22;5041616;28;20232;-71
2021/12/24 01:51:51;;;;;;;2.27;2.07;;;;;;;6.39;78.21;95621.63;5041851;28;20204;-71
2021/12/24 01:54:19;;;;;;;4.80;2.43;;;;;;;6.80;77.18;95596.97;5040471;28;20232;-71
2021/12/24 01:56:46;;;;;;;4.53;2.07;;;;;;;6.69;77.02;95608.63;5040453;28;20204;-71
2021/12/24 01:59:13;;;;;;;2.73;1.57;;;;;;;6.42;77.45;95602.97;5042376;28;20296;-71
2021/12/24 02:01:40;;;;;;;10.30;2.70;;;;;;;6.53;77.41;95596.53;5041674;28;20209;-71
2021/12/24 02:04:06;;;;;;;1.10;1.00;;;;;;;6.46;77.50;95596.41;5041745;28;20225;-71
2021/12/24 02:06:33;;;;;;;1.63;1.20;;;;;;;6.52;77.69;95590.50;5041376;28;20201;-71
2021/12/24 02:09:00;;;;;;;2.10;1.63;;;;;;;6.59;77.35;95595.88;5040938;28;20228;-71
2021/12/24 02:11:29;;;;;;;3.67;2.17;;;;;;;6.74;77.52;95584.53;5041575;28;20224;-71
2021/12/24 02:13:56;;;;;;;8.53;2.13;;;;;;;6.83;76.35;95588.75;5040858;28;20708;-71
2021/12/24 02:16:38;;;;;;;1.77;1.57;;;;;;;6.82;76.85;95587.94;5039550;28;20209;-71
2021/12/24 02:30:10;;;;;;;2.37;1.20;;;;;;;6.96;77.15;95568.06;5044732;28;20284;-71
2021/12/24 02:32:40;;;;;;;1.83;1.47;;;;;;;7.06;76.80;95564.25;5043915;28;20230;-71
2021/12/24 02:35:07;;;;;;;4.10;1.73;;;;;;;6.98;76.75;95561.69;5044333;28;20205;-71
2021/12/24 02:37:35;;;;;;;5.00;1.97;;;;;;;6.98;77.19;95561.69;5045814;28;20204;-71
2021/12/24 02:40:02;;;;;;;3.33;2.10;;;;;;;6.86;76.54;95575.31;5045890;28;20197;-71
2021/12/24 02:42:29;;;;;;;1.47;1.13;;;;;;;6.83;77.15;95578.28;5043676;28;20642;-71
2021/12/24 02:44:56;;;;;;;5.70;2.60;;;;;;;6.98;76.08;95571.34;5045160;28;20298;-71
2021/12/24 02:47:40;;;;;;;1.17;1.03;;;;;;;6.97;76.01;95559.25;5043628;28;20564;-71
2021/12/24 02:55:37;;;;;;;3.10;1.30;;;;;;;6.95;76.27;95542.88;5044781;28;20212;-71
2021/12/24 02:58:04;;;;;;;1.30;1.20;;;;;;;7.04;75.43;95544.44;5043786;28;20200;-71
2021/12/24 03:00:30;;;;;;;1.10;0.90;;;;;;;6.88;75.89;95532.25;5045487;28;20204;-71
2021/12/24 03:02:57;;;;;;;6.77;1.90;;;;;;;7.12;75.37;95531.34;5043397;28;20225;-71
2021/12/24 03:05:25;;;;;;;2.40;1.63;;;;;;;7.21;75.67;95525.06;5044350;28;20240;-71
2021/12/24 03:07:51;;;;;;;9.63;2.07;;;;;;;7.10;74.49;95533.28;5044170;28;20208;-71
2021/12/24 03:10:21;;;;;;;3.53;1.57;;;;;;;7.29;74.38;95523.19;5045363;28;20205;-71
2021/12/24 03:12:51;;;;;;;2.60;1.73;;;;;;;7.22;74.49;95514.41;5043052;28;20229;-71
2021/12/24 03:15:21;;;;;;;3.80;1.43;;;;;;;7.12;74.79;95519.03;5044146;28;20716;-71
2021/12/24 03:17:51;;;;;;;17.30;1.40;;;;;;;6.94;74.19;95518.50;5041532;28;20292;-71
2021/12/24 03:20:18;;;;;;;3.03;1.50;;;;;;;7.09;73.65;95505.47;5045009;28;20296;-71
2021/12/24 03:22:51;;;;;;;1.27;1.10;;;;;;;7.13;74.36;95504.97;5044049;28;21175;-71
2021/12/24 03:25:19;;;;;;;0.93;0.83;;;;;;;7.13;74.60;95510.19;5045118;28;20292;-71
2021/12/24 03:27:46;;;;;;;6.10;2.87;;;;;;;6.85;74.54;95509.06;5040477;28;20208;-71
2021/12/24 03:30:13;;;;;;;2.83;1.63;;;;;;;7.00;74.98;95502.09;5044568;28;20232;-71
2021/12/24 03:32:40;;;;;;;4.50;1.87;;;;;;;6.92;75.07;95504.75;5043945;28;20223;-71
2021/12/24 03:35:07;;;;;;;8.30;1.90;;;;;;;7.14;74.37;95501.34;5045055;28;20659;-71
2021/12/24 03:37:34;;;;;;;3.43;1.93;;;;;;;6.96;74.37;95505.22;5043043;28;20681;-71
2021/12/24 03:40:00;;;;;;;0.77;0.77;;;;;;;6.85;74.27;95506.44;5044032;28;20194;-71
2021/12/24 03:42:28;;;;;;;2.63;1.77;;;;;;;7.19;74.80;95501.63;5043612;28;20208;-71
2021/12/24 03:45:05;;;;;;;4.00;2.03;;;;;;;6.83;75.12;95502.34;5044518;28;20204;-71
2021/12/24 03:47:36;;;;;;;2.63;1.87;;;;;;;6.80;75.04;95506.13;5042610;28;20771;-71
2021/12/24 03:50:07;;;;;;;5.53;2.10;;;;;;;6.90;74.47;95508.56;5042955;28;20221;-71
2021/12/24 03:52:50;;;;;;;2.97;1.77;;;;;;;7.04;74.18;95494.69;5042019;28;20208;-71
2021/12/24 03:55:16;;;;;;;3.47;1.63;;;;;;;7.10;73.42;95497.44;5043281;28;20618;-71
2021/12/24 03:57:44;;;;;;;2.03;1.20;;;;;;;7.20;74.13;95497.22;5043476;28;20216;-71
2021/12/24 04:00:14;;;;;;;2.90;1.13;;;;;;;7.24;73.63;95498.50;5043746;28;20608;-71
2021/12/24 04:02:41;;;;;;;2.13;1.20;;;;;;;7.02;73.73;95509.78;5043712;28;20221;-71
2021/12/24 04:05:09;;;;;;;3.23;2.07;;;;;;;7.13;74.33;95491.88;5043153;28;20216;-71
2021/12/24 04:07:36;;;;;;;2.23;1.43;;;;;;;7.23;73.94;95486.38;5042439;28;20720;-71
2021/12/24 04:10:08;;;;;;;1.27;1.17;;;;;;;7.05;74.37;95489.31;5043541;28;20233;-71
2021/12/24 04:12:35;;;;;;;3.53;1.70;;;;;;;7.10;74.94;95489.56;5043495;28;20200;-71
2021/12/24 04:15:05;;;;;;;1.33;1.23;;;;;;;7.01;75.72;95476.72;5044051;28;20205;-71
2021/12/24 04:17:34;;;;;;;2.20;1.57;;;;;;;6.75;76.00;95491.94;5041564;28;20212;-71
2021/12/24 04:25:30;;;;;;;4.23;1.77;;;;;;;6.79;77.40;95487.97;5043843;28;20233;-71
2021/12/24 04:27:59;;;;;;;2.03;1.73;;;;;;;6.79;77.53;95482.75;5043110;28;20208;-71
2021/12/24 04:30:33;;;;;;;3.07;1.47;;;;;;;6.87;77.73;95483.53;5043252;28;20232;-71
2021/12/24 04:33:04;;;;;;;2.57;1.40;;;;;;;6.50;78.70;95487.78;5041859;28;20271;-71
2021/12/24 04:35:40;;;;;;;2.60;1.43;;;;;;;6.69;77.81;95479.53;5044164;28;20205;-71
2021/12/24 04:52:05;;;;;;;2.90;2.00;;;;;;;6.65;77.22;95473.00;5058935;28;20679;-70
2021/12/24 05:02:54;;;;;;;5.53;1.70;;;;;;;6.69;77.00;95482.13;5056757;28;20600;-70
2021/12/24 05:05:26;;;;;;;3.13;2.10;;;;;;;6.55;77.84;95489.91;5058741;28;20283;-70
2021/12/24 05:08:14;;;;;;;3.40;1.93;;;;;;;6.72;77.22;95481.78;5058704;28;20196;-70
2021/12/24 05:10:43;;;;;;;1.40;1.13;;;;;;;6.92;76.91;95470.69;5058634;28;20280;-70
2021/12/24 05:13:13;;;;;;;1.97;1.30;;;;;;;7.04;77.60;95473.72;5059990;28;20251;-70
2021/12/24 05:15:42;;;;;;;3.57;1.90;;;;;;;6.76;77.81;95470.00;5060139;28;20212;-71
2021/12/24 05:18:27;;;;;;;5.47;1.87;;;;;;;6.93;77.98;95469.72;5056844;28;20205;-71
2021/12/24 05:23:38;;;;;;;2.87;1.70;;;;;;;6.74;77.86;95469.34;5059427;28;20231;-71
2021/12/24 05:26:05;;;;;;;1.93;0.80;;;;;;;6.77;77.99;95476.84;5059472;28;20211;-71
2021/12/24 05:28:33;;;;;;;4.37;1.83;;;;;;;7.00;77.22;95485.56;5058453;28;20209;-71
2021/12/24 05:31:00;;;;;;;4.73;1.23;;;;;;;6.69;77.83;95482.13;5059727;28;20205;-71
2021/12/24 05:33:26;;;;;;;3.03;1.97;;;;;;;6.79;76.92;95485.38;5059025;28;20220;-70
2021/12/24 05:35:53;;;;;;;1.03;0.60;;;;;;;6.72;77.23;95487.03;5058110;28;20204;-70
2021/12/24 05:38:19;;;;;;;3.93;1.40;;;;;;;6.91;77.08;95482.19;5058988;28;20205;-70
2021/12/24 05:40:46;;;;;;;6.47;1.87;;;;;;;6.93;77.30;95489.88;5059063;28;20225;-70
2021/12/24 05:43:12;;;;;;;1.67;0.97;;;;;;;7.01;76.78;95492.44;5057476;28;20220;-70
2021/12/24 05:45:40;;;;;;;2.10;1.43;;;;;;;7.00;78.08;95485.56;5058185;28;21159;-70
2021/12/24 05:48:07;;;;;;;0.90;0.77;;;;;;;6.86;77.52;95487.13;5058305;28;20864;-70
2021/12/24 05:50:34;;;;;;;1.43;1.33;;;;;;;6.71;78.02;95483.59;5055728;28;20563;-70
2021/12/24 05:53:00;;;;;;;1.53;1.30;;;;;;;6.94;77.14;95483.66;5043670;28;20221;-70
2021/12/24 05:55:27;;;;;;;6.20;1.83;;;;;;;6.85;77.67;95479.44;5045068;28;20208;-71
2021/12/24 05:57:53;;;;;;;2.13;1.10;;;;;;;6.82;77.61;95479.78;5044975;28;20209;-70
2021/12/24 06:00:20;;;;;;;2.40;1.30;;;;;;;6.94;77.31;95492.31;5044612;28;20425;-70
2021/12/24 06:02:48;;;;;;;1.47;1.27;;;;;;;7.20;77.32;95486.75;5044521;28;20217;-70
2021/12/24 06:05:14;;;;;;;3.63;1.80;;;;;;;6.91;77.29;95486.59;5042928;28;20205;-70
2021/12/24 06:07:41;;;;;;;2.00;1.63;;;;;;;6.96;77.42;95479.88;5041764;28;20211;-70
2021/12/24 06:10:08;;;;;;;5.70;1.77;;;;;;;6.96;77.86;95479.03;5041425;28;20205;-70
2021/12/24 06:12:35;;;;;;;5.37;2.57;;;;;;;7.06;77.77;95482.25;5041183;28;20244;-70
2021/12/24 06:15:05;;;;;;;3.83;1.60;;;;;;;6.90;77.58;95471.88;5040728;28;20205;-70
2021/12/24 06:17:33;;;;;;;3.10;1.70;;;;;;;7.11;76.71;95475.50;5038909;28;20198;-70
2021/12/24 06:20:01;;;;;;;3.87;1.97;;;;;;;6.91;78.57;95478.72;5040773;28;20224;-70
2021/12/24 06:22:28;;;;;;;3.97;2.57;;;;;;;6.90;78.15;95490.22;5040258;28;20205;-70
2021/12/24 06:24:54;;;;;;;1.07;0.97;;;;;;;6.91;77.35;95481.34;5040321;28;20201;-70
2021/12/24 06:27:21;;;;;;;1.67;1.47;;;;;;;6.97;77.32;95491.16;5039767;28;20205;-70
2021/12/24 06:29:48;;;;;;;2.63;1.23;;;;;;;6.81;77.79;95481.59;5040967;28;20212;-70
2021/12/24 06:32:15;;;;;;;1.73;1.00;;;;;;;6.79;78.20;95490.59;5040233;28;20243;-70
2021/12/24 06:34:42;;;;;;;2.63;1.60;;;;;;;6.87;77.81;95496.63;5040266;28;20201;-71
2021/12/24 06:37:10;;;;;;;4.00;1.97;;;;;;;7.02;77.75;95501.91;5040486;28;20208;-71
2021/12/24 06:39:36;;;;;;;2.00;1.80;;;;;;;6.90;78.05;95505.94;5039680;28;20229;-70
2021/12/24 06:42:04;;;;;;;2.73;1.50;;;;;;;6.96;77.83;95502.59;5040334;28;20205;-70
2021/12/24 06:44:30;;;;;;;1.47;1.30;;;;;;;7.00;77.87;95493.41;5039341;28;20224;-70
2021/12/24 06:46:57;;;;;;;3.17;1.60;;;;;;;6.92;77.61;95493.47;5040197;28;20206;-70
2021/12/24 06:49:23;;;;;;;4.90;2.77;;;;;;;6.94;78.14;95491.50;5039725;28;20201;-70
2021/12/24 06:51:50;;;;;;;5.63;1.97;;;;;;;6.74;78.47;95495.53;5041061;28;20225;-70
2021/12/24 06:54:18;;;;;;;2.83;1.90;;;;;;;7.15;78.84;95494.31;5039388;28;20232;-70
2021/12/24 06:56:44;;;;;;;3.13;2.17;;;;;;;6.89;78.78;95501.69;5040540;28;20208;-70
2021/12/24 06:59:11;;;;;;;2.10;1.30;;;;;;;6.83;79.75;95499.72;5040783;28;20225;-70
2021/12/24 07:01:38;;;;;;;3.37;2.47;;;;;;;7.06;78.71;95511.06;5040365;28;20221;-70
2021/12/24 07:04:04;;;;;;;5.20;2.27;;;;;;;6.89;79.85;95504.28;5038445;28;20228;-70
2021/12/24 07:06:31;;;;;;;3.87;1.83;;;;;;;6.89;79.81;95505.09;5039372;28;20197;-70
2021/12/24 07:08:58;;;;;;;4.33;2.17;;;;;;;6.81;80.48;95512.16;5039760;28;20201;-70
2021/12/24 07:11:26;;;;;;;3.77;1.67;;;;;;;7.23;79.62;95496.84;5039864;28;21062;-70
2021/12/24 07:13:53;;;;;;;2.50;2.13;;;;;;;6.83;81.15;95490.06;5039415;28;20221;-70
2021/12/24 07:16:20;;;;;;;1.97;1.77;;;;;;;6.95;80.79;95493.94;5036590;28;20212;-70
2021/12/24 07:18:46;;;;;;;2.20;2.00;;;;;;;6.78;81.09;95500.25;5039360;28;20208;-70
2021/12/24 07:21:13;;;;;;;2.10;1.37;;;;;;;6.92;81.29;95503.94;5039656;28;20244;-70
2021/12/24 07:23:40;;;;;;;5.07;1.67;;;;;;;6.82;82.16;95495.47;5038843;28;20225;-70
2021/12/24 07:26:06;;;;;;;3.03;1.60;;;;;;;6.91;81.36;95500.50;5038638;28;20209;-70
2021/12/24 07:28:34;;;;;;;2.77;1.87;;;;;;;7.22;81.77;95501.28;5039200;28;20201;-70
2021/12/24 07:31:01;;;;;;;1.50;1.27;;;;;;;6.90;82.48;95505.94;5039286;28;20205;-70
2021/12/24 07:33:27;;;;;;;3.80;2.33;;;;;;;7.10;82.30;95507.09;5037189;28;20600;-70
2021/12/24 07:35:54;;;;;;;2.00;1.77;;;;;;;6.88;83.57;95505.28;5038788;28;20212;-71
2021/12/24 07:38:20;;;;;;;3.80;2.17;;;;;;;6.79;84.19;95509.72;5038828;28;20212;-71
2021/12/24 07:40:47;;;;;;;5.77;2.67;;;;;;;6.66;84.78;95511.28;5038906;28;20225;-71
2021/12/24 07:43:13;;;;;;;1.60;1.33;;;;;;;6.49;85.56;95507.13;5038176;28;20594;-71
2021/12/24 07:45:43;;;;;;;3.77;2.10;;;;;;;6.97;85.52;95506.84;5038781;28;20201;-71
2021/12/24 07:48:13;;;;;;;5.63;2.67;;;;;;;6.91;84.81;95502.31;5038991;28;20201;-71
2021/12/24 07:53:25;;;;;;;4.37;2.87;;;;;;;6.95;85.43;95503.59;5037948;28;20240;-71
2021/12/24 07:55:53;;;;;;;4.60;1.37;;;;;;;6.86;85.79;95496.75;5038714;28;20239;-71
2021/12/24 07:58:20;;;;;;;2.87;2.27;;;;;;;6.62;86.54;95502.16;5039077;28;20207;-71
2021/12/24 08:00:48;;;;;;;6.20;2.67;;;;;;;7.10;86.24;95499.25;5038865;28;20251;-71
2021/12/24 08:03:15;;;;;;;2.87;2.27;;;;;;;6.88;86.27;95497.41;5037946;28;20559;-71
2021/12/24 08:05:42;;;;;;;3.50;2.07;;;;;;;6.98;86.32;95498.03;5038332;28;20205;-71
2021/12/24 08:08:10;;;;;;;3.53;1.83;;;;;;;6.78;88.08;95497.66;5037951;28;20691;-71
2021/12/24 08:10:38;;;;;;;6.30;2.23;;;;;;;6.99;87.03;95494.41;5038530;28;20875;-71
2021/12/24 08:13:05;;;;;;;4.97;2.27;;;;;;;7.03;87.67;95506.19;5037135;28;20456;-71
2021/12/24 08:15:32;;;;;;;2.83;2.17;;;;;;;6.94;87.64;95494.13;5038136;28;20201;-71
2021/12/24 08:18:00;;;;;;;8.23;3.10;;;;;;;7.26;87.50;95486.03;5035163;28;20201;-71
2021/12/24 08:20:27;;;;;;;4.70;2.60;;;;;;;6.95;87.61;95482.63;5038183;28;21040;-70
2021/12/24 08:22:55;;;;;;;12.43;3.50;;;;;;;7.22;87.92;95480.34;5037478;28;20326;-70
2021/12/24 08:25:23;;;;;;;2.60;1.63;;;;;;;7.16;88.38;95474.97;5038796;28;20201;-70
2021/12/24 08:27:50;;;;;;;4.33;2.00;;;;;;;6.81;89.22;95473.72;5038720;28;20212;-70
2021/12/24 08:30:17;;;;;;;15.00;3.47;;;;;;;7.01;88.38;95481.94;5038530;28;20431;-70
2021/12/24 08:32:43;;;;;;;6.23;3.37;;;;;;;7.04;89.25;95486.81;5037935;28;20252;-70
2021/12/24 08:35:16;;;;;;;13.90;4.93;;;;;;;7.15;90.36;95489.88;5038523;28;20205;-70
2021/12/24 08:37:43;;;;;;;16.10;7.03;;;;;;;6.98;91.01;95484.94;5038704;28;20585;-70
2021/12/24 08:40:11;;;;;;;17.27;7.63;;;;;;;7.09;91.14;95492.38;5038544;28;20228;-70
2021/12/24 08:42:37;;;;;;;10.77;5.67;;;;;;;6.96;91.27;95484.28;5037994;28;20926;-70
2021/12/24 08:45:05;;;;;;;7.67;3.90;;;;;;;7.08;91.90;95482.91;5038039;28;20204;-70
2021/12/24 08:47:31;;;;;;;8.37;4.13;;;;;;;6.96;92.44;95477.25;5037743;28;20197;-71
2021/12/24 08:49:58;;;;;;;13.73;5.47;;;;;;;6.81;92.27;95489.44;5036805;28;20216;-71
2021/12/24 08:52:26;;;;;;;20.73;6.17;;;;;;;7.16;92.31;95475.78;5035623;28;20549;-71
2021/12/24 08:54:52;;;;;;;19.17;7.47;;;;;;;6.91;92.37;95482.19;5036358;28;20209;-71
2021/12/24 08:57:19;;;;;;;19.83;7.87;;;;;;;6.79;93.34;95483.53;5035789;28;20303;-70
2021/12/24 08:59:45;;;;;;;14.70;6.73;;;;;;;6.97;93.41;95478.06;5035724;28;20380;-70
2021/12/24 09:02:12;;;;;;;8.03;4.43;;;;;;;6.86;93.77;95483.66;5035752;28;20225;-70
2021/12/24 09:04:38;;;;;;;5.20;2.73;;;;;;;6.83;94.09;95489.25;5035843;28;20448;-70
2021/12/24 09:07:05;;;;;;;8.00;2.47;;;;;;;6.78;95.14;95486.34;5035533;28;20197;-70
2021/12/24 09:09:33;;;;;;;8.00;3.23;;;;;;;7.06;95.19;95480.44;5036515;28;20205;-70
2021/12/24 09:11:59;;;;;;;6.50;4.07;;;;;;;6.97;94.60;95475.44;5038045;28;20223;-70
2021/12/24 09:14:26;;;;;;;13.73;2.80;;;;;;;6.72;95.71;95481.78;5036632;28;20233;-70
2021/12/24 09:16:53;;;;;;;7.43;3.53;;;;;;;6.93;95.97;95482.00;5033845;28;20295;-70
2021/12/24 09:19:24;;;;;;;3.60;1.60;;;;;;;6.95;95.20;95486.09;5036951;28;20206;-70
2021/12/24 09:21:51;;;;;;;0.70;0.70;;;;;;;6.68;96.08;95488.34;5037623;28;20726;-70
2021/12/24 09:24:20;;;;;;;2.83;1.50;;;;;;;6.82;96.03;95493.69;5036614;28;20315;-70
2021/12/24 09:26:48;;;;;;;4.13;1.70;;;;;;;7.18;95.32;95483.47;5039093;28;20245;-70
2021/12/24 09:29:17;;;;;;;3.50;2.57;;;;;;;7.41;95.43;95478.06;5041936;28;20695;-70
2021/12/24 09:31:44;;;;;;;3.10;1.83;;;;;;;7.21;95.35;95477.91;5041800;28;20202;-70
2021/12/24 09:34:10;;;;;;;5.37;1.60;;;;;;;7.07;94.82;95478.66;5040146;28;20232;-70
2021/12/24 09:36:38;;;;;;;2.23;1.20;;;;;;;6.94;96.27;95476.59;5041020;28;20212;-70
2021/12/24 09:39:06;;;;;;;0.73;0.73;;;;;;;7.00;97.71;95475.91;5042081;28;20303;-70
2021/12/24 09:41:33;;;;;;;3.70;2.27;;;;;;;7.12;96.78;95464.03;5041451;28;20232;-71
2021/12/24 09:44:03;;;;;;;2.77;2.03;;;;;;;7.54;96.48;95470.41;5040329;28;20217;-71
2021/12/24 09:46:30;;;;;;;2.37;1.93;;;;;;;7.29;96.70;95466.38;5041931;28;20205;-71
2021/12/24 09:48:58;;;;;;;8.20;2.77;;;;;;;7.05;97.50;95460.50;5041530;28;20212;-71
2021/12/24 09:51:26;;;;;;;5.47;1.90;;;;;;;7.41;97.05;95462.31;5041373;28;20208;-71
2021/12/24 09:53:54;;;;;;;2.20;1.27;;;;;;;7.21;97.23;95436.78;5040663;28;20229;-71
2021/12/24 09:56:22;;;;;;;1.57;1.37;;;;;;;7.26;97.27;95458.03;5041348;28;20661;-71
2021/12/24 09:58:48;;;;;;;3.23;2.07;;;;;;;7.12;98.63;95450.13;5040582;28;20205;-70
2021/12/24 10:01:30;;;;;;;3.63;2.33;;;;;;;7.74;97.11;95447.09;5040556;28;20724;-70
2021/12/24 10:04:03;;;;;;;3.87;2.23;;;;;;;7.40;98.82;95442.34;5040867;28;20231;-71
2021/12/24 10:06:30;;;;;;;4.80;2.33;;;;;;;7.45;98.36;95445.25;5040499;28;20561;-71
2021/12/24 10:09:01;;;;;;;4.17;1.80;;;;;;;7.80;97.91;95439.34;5041188;28;20209;-71
2021/12/24 10:11:30;;;;;;;1.47;1.37;;;;;;;7.35;98.43;95438.63;5041264;28;20197;-71
2021/12/24 10:14:05;;;;;;;1.03;0.97;;;;;;;7.67;98.95;95438.34;5040235;28;20225;-71
2021/12/24 10:16:33;;;;;;;2.37;1.90;;;;;;;7.78;98.48;95438.72;5037609;28;20201;-70
2021/12/24 10:19:02;;;;;;;6.20;1.10;;;;;;;7.73;98.47;95435.81;5041239;28;20205;-70
2021/12/24 10:21:32;;;;;;;4.00;1.97;;;;;;;7.77;98.59;95423.97;5040760;28;21064;-70
2021/12/24 10:24:01;;;;;;;1.93;1.37;;;;;;;7.72;99.10;95421.06;5040465;28;20229;-70
2021/12/24 10:26:30;;;;;;;1.43;1.27;;;;;;;7.58;99.19;95419.25;5040917;28;20201;-70
2021/12/24 10:29:06;;;;;;;2.80;1.20;;;;;;;7.78;99.29;95415.13;5040945;28;20239;-70
2021/12/24 10:31:36;;;;;;;3.00;1.87;;;;;;;7.61;100.00;95420.69;5038825;28;20204;-71
2021/12/24 10:34:18;;;;;;;1.80;0.97;;;;;;;7.65;100.00;95412.31;5037955;28;20243;-71
2021/12/24 10:37:04;;;;;;;4.17;1.47;;;;;;;7.68;100.00;95411.94;5038278;28;20193;-71
2021/12/24 10:39:34;;;;;;;5.23;2.07;;;;;;;7.56;100.00;95416.00;5038701;28;20219;-71
2021/12/24 10:42:03;;;;;;;1.07;0.87;;;;;;;7.13;100.00;95415.91;5038472;28;20233;-70
2021/12/24 10:44:32;;;;;;;6.03;1.73;;;;;;;7.49;100.00;95419.50;5037222;28;20221;-71
2021/12/24 10:47:06;;;;;;;2.10;1.67;;;;;;;7.57;100.00;95422.03;5038388;28;20201;-71
2021/12/24 10:55:04;;;;;;;4.40;2.00;;;;;;;7.50;100.00;95421.94;5015603;28;20212;-71
2021/12/24 10:57:32;;;;;;;2.73;1.67;;;;;;;7.46;100.00;95428.53;5037974;28;20673;-71
2021/12/24 11:00:03;;;;;;;4.37;2.00;;;;;;;7.55;100.00;95430.09;5038192;28;20205;-71
2021/12/24 11:02:33;;;;;;;1.10;1.00;;;;;;;7.61;100.00;95429.38;5037228;28;20225;-70
2021/12/24 11:05:00;;;;;;;1.63;1.53;;;;;;;7.35;100.00;95418.47;5038187;28;20205;-70
2021/12/24 11:07:35;;;;;;;5.17;1.83;;;;;;;7.80;100.00;95422.81;5037516;28;20201;-71
2021/12/24 11:10:11;;;;;;;6.50;1.63;;;;;;;7.83;100.00;95427.69;5038456;28;20262;-71
2021/12/24 11:12:40;;;;;;;1.83;1.23;;;;;;;7.60;100.00;95422.50;5036634;28;20224;-71
2021/12/24 11:15:22;;;;;;;7.00;2.53;;;;;;;7.80;100.00;95415.72;5038331;28;20197;-71
2021/12/24 11:17:51;;;;;;;2.50;2.13;;;;;;;7.48;100.00;95416.06;5034584;28;20205;-71
2021/12/24 11:20:18;;;;;;;1.80;1.20;;;;;;;7.37;100.00;95406.00;5038032;28;20201;-71
2021/12/24 11:23:00;;;;;;;1.03;0.83;;;;;;;7.58;100.00;95408.75;5036581;28;20391;-70
2021/12/24 11:25:29;;;;;;;2.77;1.57;;;;;;;7.51;100.00;95393.91;5037648;28;20204;-72
2021/12/24 11:27:56;;;;;;;3.10;1.43;;;;;;;7.53;100.00;95395.38;5037601;28;20212;-71
2021/12/24 11:30:23;;;;;;;2.03;1.40;;;;;;;7.67;100.00;95399.00;5037747;28;20209;-71
2021/12/24 11:32:52;;;;;;;4.53;1.77;;;;;;;7.90;100.00;95392.69;5036869;28;20213;-72
2021/12/24 11:35:19;;;;;;;2.97;1.07;;;;;;;7.75;100.00;95388.44;5037261;28;20239;-71
2021/12/24 11:37:48;;;;;;;4.20;2.13;;;;;;;7.80;100.00;95392.13;5037470;28;20209;-71
2021/12/24 11:40:16;;;;;;;4.57;2.90;;;;;;;7.62;100.00;95386.44;5036708;28;20209;-72
2021/12/24 11:42:44;;;;;;;2.97;1.90;;;;;;;7.65;100.00;95378.22;5036806;28;21150;-72
2021/12/24 11:45:11;;;;;;;2.87;2.17;;;;;;;7.69;100.00;95383.91;5037442;28;20255;-71
2021/12/24 11:47:38;;;;;;;3.07;1.67;;;;;;;7.58;100.00;95376.50;5036919;28;20216;-71
2021/12/24 11:50:07;;;;;;;5.07;2.07;;;;;;;7.91;100.00;95373.34;5036862;28;20721;-72
2021/12/24 11:52:34;;;;;;;6.10;2.17;;;;;;;7.62;100.00;95369.91;5036614;28;20772;-72
2021/12/24 11:55:01;;;;;;;3.00;1.73;;;;;;;7.73;100.00;95377.31;5037166;28;20205;-71
2021/12/24 11:57:27;;;;;;;3.13;2.00;;;;;;;7.73;100.00;95377.31;5037052;28;20205;-72
2021/12/24 11:59:54;;;;;;;2.97;2.33;;;;;;;7.59;100.00;95371.06;5037485;28;20217;-72
2021/12/24 12:02:45;;;;;;;1.63;1.23;;;;;;;7.94;100.00;95363.31;5036214;28;20233;-72
2021/12/24 12:05:22;;;;;;;1.13;1.03;;;;;;;7.96;100.00;95365.75;5037486;28;20209;-71
2021/12/24 12:07:49;;;;;;;3.73;1.97;;;;;;;7.76;100.00;95363.84;5037179;28;20197;-71
2021/12/24 12:10:52;;;;;;;2.43;1.43;;;;;;;8.17;100.00;95350.09;5036291;28;20205;-71
2021/12/24 12:13:41;;;;;;;7.53;2.13;;;;;;;8.25;100.00;95345.56;5036488;28;20229;-71
2021/12/24 12:16:09;;;;;;;7.53;1.50;;;;;;;7.95;100.00;95357.03;5035053;28;20748;-72
2021/12/24 12:18:44;;;;;;;6.20;2.47;;;;;;;7.96;100.00;95344.75;5036547;28;20202;-71
2021/12/24 12:21:14;;;;;;;4.23;2.20;;;;;;;8.09;100.00;95350.97;5035668;28;20555;-72
2021/12/24 12:23:47;;;;;;;2.63;2.23;;;;;;;8.23;100.00;95341.47;5036281;28;20232;-72
2021/12/24 12:26:32;;;;;;;2.40;2.13;;;;;;;8.55;100.00;95347.94;5036752;28;20205;-71
2021/12/24 12:29:17;;;;;;;13.70;1.37;;;;;;;8.18;100.00;95336.78;5036600;28;20257;-71
2021/12/24 12:31:44;;;;;;;4.50;2.43;;;;;;;7.94;100.00;95346.72;5037034;28;20292;-71
2021/12/24 12:34:43;;;;;;;3.57;2.33;;;;;;;8.23;100.00;95338.88;5035733;28;20221;-72
2021/12/24 12:37:16;;;;;;;3.50;2.57;;;;;;;8.12;100.00;95331.41;5036506;28;20221;-71
2021/12/24 12:39:44;;;;;;;4.00;2.90;;;;;;;8.00;100.00;95338.16;5036369;28;20209;-72
2021/12/24 12:42:13;;;;;;;3.70;2.00;;;;;;;7.94;100.00;95328.38;5035909;28;20221;-71
2021/12/24 12:44:45;;;;;;;1.03;1.03;;;;;;;8.18;100.00;95313.16;5036463;28;20320;-71
2021/12/24 12:47:14;;;;;;;3.13;2.17;;;;;;;8.17;100.00;95323.84;5036687;28;20209;-72
2021/12/24 12:49:41;;;;;;;6.00;2.97;;;;;;;8.05;100.00;95317.44;5036087;28;20204;-72
2021/12/24 12:52:12;;;;;;;3.73;2.43;;;;;;;8.29;100.00;95304.81;5035732;28;20696;-72
2021/12/24 12:54:43;;;;;;;4.53;2.70;;;;;;;8.30;100.00;95300.38;5036789;28;20248;-71
2021/12/24 12:57:28;;;;;;;5.70;3.20;;;;;;;8.55;100.00;95300.66;5036212;28;20314;-72
2021/12/24 13:00:19;;;;;;;6.23;3.13;;;;;;;8.60;100.00;95298.28;5036079;28;20251;-71
2021/12/24 13:03:09;;;;;;;7.00;3.90;;;;;;;8.63;100.00;95287.41;5039180;28;20232;-71
2021/12/24 13:05:56;;;;;;;3.43;1.87;;;;;;;8.66;100.00;95294.91;5039868;28;20205;-72
2021/12/24 13:08:24;;;;;;;3.23;2.00;;;;;;;8.41;100.00;95303.31;5040228;28;20637;-72
2021/12/24 13:10:58;;;;;;;1.30;1.20;;;;;;;8.63;100.00;95295.28;5039898;28;20216;-72
2021/12/24 13:13:24;;;;;;;4.10;3.07;;;;;;;8.46;100.00;95292.28;5036949;28;20221;-71